Time;durP1;ratioP1;P1;durP2;ratioP2;P2;SDS_P1;SDS_P2;PMS_P1;PMS_P2;Temp;Humidity;BMP_temperature;BMP_pressure;BME280_temperature;BME280_humidity;BME280_pressure;Samples;Min_cycle;Max_cycle;Signal;HPM_P1;HPM_P2
2023/12/16 00:01:35;;;;;;;9.63;6.00;;;8.30;99.90;;;;;;4994305;28;20200;-75
2023/12/16 00:04:04;;;;;;;14.37;6.40;;;8.30;99.90;;;;;;5001775;28;20196;-75
2023/12/16 00:06:32;;;;;;;10.80;6.40;;;8.30;99.90;;;;;;5002324;28;20228;-75
2023/12/16 00:08:58;;;;;;;12.53;5.53;;;8.30;99.90;;;;;;5004943;28;20211;-75
2023/12/16 00:11:26;;;;;;;14.63;5.97;;;8.20;99.90;;;;;;4993998;28;20539;-75
2023/12/16 00:13:54;;;;;;;12.43;6.63;;;8.20;99.90;;;;;;5003306;28;20611;-75
2023/12/16 00:16:22;;;;;;;11.37;5.93;;;8.20;99.90;;;;;;4997109;28;20234;-75
2023/12/16 00:18:50;;;;;;;11.53;6.47;;;8.20;99.90;;;;;;5007728;28;20201;-75
2023/12/16 00:21:19;;;;;;;14.90;6.57;;;8.20;99.90;;;;;;4995148;28;20204;-75
2023/12/16 00:23:46;;;;;;;13.23;6.50;;;8.20;99.90;;;;;;4995659;28;20185;-75
2023/12/16 00:26:14;;;;;;;10.63;5.90;;;8.20;99.90;;;;;;4995801;28;20220;-75
2023/12/16 00:28:41;;;;;;;11.90;6.53;;;8.20;99.90;;;;;;5004393;28;20662;-75
2023/12/16 00:31:08;;;;;;;14.70;7.40;;;8.10;99.90;;;;;;4993757;28;20577;-75
2023/12/16 00:33:36;;;;;;;18.87;6.97;;;8.10;99.90;;;;;;5002749;28;20192;-75
2023/12/16 00:36:04;;;;;;;21.07;7.20;;;8.10;99.90;;;;;;5013607;28;20215;-75
2023/12/16 00:38:32;;;;;;;15.97;6.57;;;8.10;99.90;;;;;;5002876;28;20196;-75
2023/12/16 00:41:00;;;;;;;12.67;7.17;;;8.10;99.90;;;;;;5002311;28;20208;-75
2023/12/16 00:43:27;;;;;;;13.67;6.90;;;8.10;99.90;;;;;;4993883;28;20203;-75
2023/12/16 00:45:54;;;;;;;15.10;6.80;;;8.10;99.90;;;;;;5000111;28;20215;-75
2023/12/16 00:48:22;;;;;;;13.13;7.07;;;8.10;99.90;;;;;;4994683;28;20211;-75
2023/12/16 00:50:49;;;;;;;17.63;7.30;;;8.10;99.90;;;;;;4999517;28;20214;-75
2023/12/16 00:53:16;;;;;;;14.40;7.30;;;8.10;99.90;;;;;;5010124;28;20666;-75
2023/12/16 00:55:45;;;;;;;11.00;7.10;;;8.10;99.90;;;;;;5000538;28;20235;-75
2023/12/16 00:58:13;;;;;;;12.27;7.00;;;8.10;99.90;;;;;;5002879;28;20204;-75
2023/12/16 01:00:42;;;;;;;12.53;7.40;;;8.00;99.90;;;;;;5005210;28;20203;-75
2023/12/16 01:03:09;;;;;;;12.60;6.90;;;8.00;99.90;;;;;;4993852;28;20196;-75
2023/12/16 01:05:37;;;;;;;14.63;7.20;;;8.00;99.90;;;;;;5005139;28;20238;-75
2023/12/16 01:08:05;;;;;;;14.43;7.60;;;8.10;99.90;;;;;;5011530;28;20207;-75
2023/12/16 01:10:32;;;;;;;19.27;8.07;;;8.10;99.90;;;;;;4995856;28;20593;-75
2023/12/16 01:13:01;;;;;;;11.37;6.87;;;8.10;99.90;;;;;;4993131;28;20216;-75
2023/12/16 01:15:28;;;;;;;15.77;7.57;;;8.10;99.90;;;;;;4996480;28;20234;-75
2023/12/16 01:17:56;;;;;;;11.73;6.83;;;8.10;99.90;;;;;;5012903;28;20208;-75
2023/12/16 01:20:23;;;;;;;18.43;7.20;;;8.10;99.90;;;;;;5005022;28;20677;-73
2023/12/16 01:22:51;;;;;;;16.60;7.03;;;8.10;99.90;;;;;;4993106;28;20211;-73
2023/12/16 01:25:18;;;;;;;12.87;6.47;;;8.00;99.90;;;;;;4994631;28;20208;-73
2023/12/16 01:27:47;;;;;;;17.27;7.67;;;8.10;99.90;;;;;;4995148;28;20662;-73
2023/12/16 01:30:15;;;;;;;11.90;6.50;;;8.10;99.90;;;;;;5010795;28;20219;-73
2023/12/16 01:32:43;;;;;;;16.67;7.07;;;8.10;99.90;;;;;;4992879;28;20196;-73
2023/12/16 01:35:10;;;;;;;13.33;6.93;;;8.10;99.90;;;;;;5007104;28;20219;-73
2023/12/16 01:37:38;;;;;;;14.00;6.70;;;8.10;99.90;;;;;;5003842;28;20204;-75
2023/12/16 01:40:06;;;;;;;11.87;6.63;;;8.10;99.90;;;;;;4991951;28;20196;-75
2023/12/16 01:42:33;;;;;;;12.30;6.37;;;8.10;99.90;;;;;;4992403;28;20197;-75
2023/12/16 01:45:01;;;;;;;11.77;6.53;;;8.10;99.90;;;;;;4992825;28;20208;-75
2023/12/16 01:47:29;;;;;;;13.10;6.73;;;8.10;99.90;;;;;;5001521;28;20206;-75
2023/12/16 01:49:56;;;;;;;17.97;7.23;;;8.10;99.90;;;;;;4999055;28;20570;-75
2023/12/16 01:52:23;;;;;;;11.70;6.03;;;8.10;99.90;;;;;;5001902;28;20199;-75
2023/12/16 01:54:51;;;;;;;15.37;6.57;;;8.10;99.90;;;;;;4999970;28;20211;-75
2023/12/16 01:57:19;;;;;;;12.90;5.90;;;8.00;99.90;;;;;;5011384;28;20206;-75
2023/12/16 01:59:46;;;;;;;11.33;7.37;;;8.10;99.90;;;;;;5013110;28;20180;-75
2023/12/16 02:02:15;;;;;;;15.00;7.20;;;8.10;99.90;;;;;;5001448;28;20207;-75
2023/12/16 02:04:44;;;;;;;14.97;6.70;;;8.00;99.90;;;;;;4992766;28;20207;-75
2023/12/16 02:07:11;;;;;;;13.23;7.10;;;8.10;99.90;;;;;;5000285;28;20220;-75
2023/12/16 02:09:38;;;;;;;15.17;6.70;;;8.00;99.90;;;;;;4991808;28;20662;-75
2023/12/16 02:12:06;;;;;;;12.07;7.13;;;8.10;99.90;;;;;;5010761;28;20192;-75
2023/12/16 02:14:33;;;;;;;14.23;6.60;;;8.10;99.90;;;;;;5011820;28;20203;-75
2023/12/16 02:17:01;;;;;;;13.57;6.70;;;8.10;99.90;;;;;;5009944;28;20231;-75
2023/12/16 02:19:29;;;;;;;15.90;7.03;;;8.00;99.90;;;;;;5023980;28;20200;-75
2023/12/16 02:21:59;;;;;;;18.07;7.63;;;8.00;99.90;;;;;;5000558;28;20199;-75
2023/12/16 02:24:28;;;;;;;12.77;6.67;;;8.00;99.90;;;;;;5000789;28;20212;-75
2023/12/16 02:26:57;;;;;;;13.90;6.93;;;8.00;99.90;;;;;;4998331;28;20227;-75
2023/12/16 02:29:24;;;;;;;17.77;7.00;;;8.10;99.90;;;;;;5012053;28;20200;-75
2023/12/16 02:31:51;;;;;;;15.33;6.93;;;8.00;99.90;;;;;;5006608;28;20211;-75
2023/12/16 02:34:19;;;;;;;17.07;6.73;;;8.00;99.90;;;;;;5011350;28;20211;-75
2023/12/16 02:37:06;;;;;;;11.07;6.20;;;8.00;99.90;;;;;;5003074;28;20220;-75
2023/12/16 02:39:34;;;;;;;13.03;6.40;;;8.00;99.90;;;;;;5000540;28;20203;-75
2023/12/16 02:42:02;;;;;;;17.23;6.23;;;8.00;99.90;;;;;;5006516;28;20192;-75
2023/12/16 02:44:29;;;;;;;10.50;6.17;;;8.00;99.90;;;;;;4993427;28;20203;-75
2023/12/16 02:46:56;;;;;;;12.07;6.07;;;8.00;99.90;;;;;;4995626;28;20223;-75
2023/12/16 02:49:24;;;;;;;12.97;6.53;;;8.00;99.90;;;;;;4998270;28;20196;-75
2023/12/16 02:51:51;;;;;;;12.03;5.83;;;8.00;99.90;;;;;;4991607;28;20216;-75
2023/12/16 02:54:18;;;;;;;14.20;6.03;;;8.00;99.90;;;;;;4993171;28;20195;-75
2023/12/16 02:56:47;;;;;;;10.03;5.30;;;8.00;99.90;;;;;;5006241;28;20215;-75
2023/12/16 02:59:15;;;;;;;12.17;4.70;;;8.00;99.90;;;;;;5009720;28;20203;-74
2023/12/16 03:01:42;;;;;;;12.53;5.20;;;8.00;99.90;;;;;;4995971;28;20195;-75
2023/12/16 03:04:09;;;;;;;7.93;4.90;;;8.00;99.90;;;;;;5004008;28;20195;-75
2023/12/16 03:06:43;;;;;;;12.87;5.43;;;8.00;99.90;;;;;;4999208;28;20223;-75
2023/12/16 03:09:10;;;;;;;10.30;5.37;;;8.10;99.90;;;;;;5010055;28;20207;-75
2023/12/16 03:11:37;;;;;;;11.73;5.33;;;8.00;99.90;;;;;;5007055;28;20206;-75
2023/12/16 03:14:06;;;;;;;14.20;5.00;;;8.00;99.90;;;;;;4996340;28;20196;-75
2023/12/16 03:16:34;;;;;;;10.90;5.00;;;8.00;99.90;;;;;;5007388;28;20216;-75
2023/12/16 03:19:02;;;;;;;12.90;5.40;;;8.00;99.90;;;;;;4997320;28;20196;-75
2023/12/16 03:21:30;;;;;;;12.90;4.63;;;8.00;99.90;;;;;;4991470;28;20201;-75
2023/12/16 03:23:58;;;;;;;11.57;5.60;;;8.00;99.90;;;;;;4991715;28;20201;-75
2023/12/16 03:26:25;;;;;;;15.70;5.77;;;8.10;99.90;;;;;;4991645;28;20224;-74
2023/12/16 03:28:52;;;;;;;12.63;4.70;;;8.00;99.90;;;;;;5009969;28;20195;-75
2023/12/16 03:31:21;;;;;;;10.80;4.80;;;8.00;99.90;;;;;;5014912;28;20219;-75
2023/12/16 03:33:48;;;;;;;9.87;4.77;;;8.00;99.90;;;;;;5003930;28;20570;-75
2023/12/16 03:36:16;;;;;;;14.17;4.80;;;8.00;99.90;;;;;;4995427;28;20231;-75
2023/12/16 03:38:43;;;;;;;11.20;4.67;;;8.00;99.90;;;;;;5012679;28;20207;-76
2023/12/16 03:41:10;;;;;;;10.30;5.03;;;8.10;99.90;;;;;;5014431;28;20188;-75
2023/12/16 03:43:38;;;;;;;8.77;4.20;;;8.10;99.90;;;;;;5015927;28;20211;-75
2023/12/16 03:46:07;;;;;;;14.83;4.30;;;8.10;99.90;;;;;;5006181;28;20220;-75
2023/12/16 03:48:36;;;;;;;10.67;4.10;;;8.10;99.90;;;;;;5007809;28;20195;-74
2023/12/16 03:51:04;;;;;;;8.23;4.03;;;8.10;99.90;;;;;;4993788;28;20226;-75
2023/12/16 03:53:31;;;;;;;8.87;3.93;;;8.10;99.90;;;;;;4997904;28;20193;-75
2023/12/16 03:55:59;;;;;;;11.33;3.97;;;8.10;99.90;;;;;;5008923;28;20219;-75
2023/12/16 03:58:26;;;;;;;9.43;4.03;;;8.10;99.90;;;;;;5012272;28;20553;-75
2023/12/16 04:00:54;;;;;;;9.80;4.30;;;8.10;99.90;;;;;;4999642;28;20208;-75
2023/12/16 04:03:21;;;;;;;10.43;3.70;;;8.10;99.90;;;;;;4994817;28;20199;-75
2023/12/16 04:05:50;;;;;;;11.47;3.97;;;8.10;99.90;;;;;;5008870;28;20230;-75
2023/12/16 04:08:17;;;;;;;11.87;4.33;;;8.10;99.90;;;;;;5010202;28;20564;-75
2023/12/16 04:10:45;;;;;;;10.13;3.60;;;8.10;99.90;;;;;;5011764;28;20195;-75
2023/12/16 04:13:14;;;;;;;12.43;3.93;;;8.20;99.90;;;;;;5003042;28;20196;-75
2023/12/16 04:15:42;;;;;;;11.87;3.77;;;8.20;99.90;;;;;;4999532;28;20234;-75
2023/12/16 04:18:09;;;;;;;9.33;4.50;;;8.20;99.90;;;;;;5003211;28;20200;-75
2023/12/16 04:20:36;;;;;;;7.60;2.90;;;8.20;99.90;;;;;;5014263;28;20203;-75
2023/12/16 04:23:05;;;;;;;9.30;3.70;;;8.10;99.90;;;;;;5003069;28;20189;-75
2023/12/16 04:25:32;;;;;;;8.40;3.80;;;8.10;99.90;;;;;;4993801;28;20220;-75
2023/12/16 04:28:00;;;;;;;7.67;3.27;;;8.10;99.90;;;;;;5004349;28;20215;-75
2023/12/16 04:30:27;;;;;;;7.83;3.60;;;8.10;99.90;;;;;;5012982;28;20549;-75
2023/12/16 04:32:55;;;;;;;9.13;3.77;;;8.10;99.90;;;;;;5014000;28;20573;-75
2023/12/16 04:35:22;;;;;;;8.33;3.23;;;8.00;99.90;;;;;;5015312;28;20226;-75
2023/12/16 04:37:49;;;;;;;9.10;3.43;;;8.00;99.90;;;;;;5012757;28;20203;-75
2023/12/16 04:40:18;;;;;;;7.07;3.80;;;8.10;99.90;;;;;;5012107;28;20661;-75
2023/12/16 04:42:46;;;;;;;9.93;3.80;;;8.00;99.90;;;;;;5014574;28;20179;-75
2023/12/16 04:45:13;;;;;;;7.47;3.53;;;8.10;99.90;;;;;;5012847;28;20577;-75
2023/12/16 04:47:40;;;;;;;7.60;3.40;;;8.10;99.90;;;;;;5039568;23;20171;-76
2023/12/16 04:50:08;;;;;;;9.60;3.83;;;8.10;99.90;;;;;;5035603;28;20190;-75
2023/12/16 04:52:36;;;;;;;10.87;3.60;;;8.10;99.90;;;;;;5054387;28;20566;-75
2023/12/16 04:55:04;;;;;;;9.17;3.93;;;8.10;99.90;;;;;;5036154;28;20206;-75
2023/12/16 04:57:32;;;;;;;10.00;3.87;;;8.10;99.90;;;;;;5026120;28;20194;-75
2023/12/16 05:00:00;;;;;;;7.63;4.10;;;8.10;99.90;;;;;;5028888;28;20679;-75
2023/12/16 05:02:27;;;;;;;8.77;4.00;;;8.10;99.90;;;;;;5016760;28;20202;-75
2023/12/16 05:04:55;;;;;;;10.77;3.83;;;8.00;99.90;;;;;;5015845;28;20195;-75
2023/12/16 05:07:22;;;;;;;8.83;4.50;;;8.10;99.90;;;;;;5016469;28;20203;-75
2023/12/16 05:09:50;;;;;;;9.67;4.30;;;8.10;99.90;;;;;;5016752;28;20198;-75
2023/12/16 05:12:17;;;;;;;9.83;4.37;;;8.10;99.90;;;;;;5015759;28;20230;-75
2023/12/16 05:14:46;;;;;;;9.47;4.27;;;8.10;99.90;;;;;;5015589;28;20210;-75
2023/12/16 05:17:13;;;;;;;8.67;3.87;;;8.10;99.90;;;;;;5016063;28;20809;-75
2023/12/16 05:19:40;;;;;;;7.57;3.30;;;8.10;99.90;;;;;;5030802;28;20225;-75
2023/12/16 05:22:08;;;;;;;9.60;4.23;;;8.10;99.90;;;;;;5015816;28;20206;-75
2023/12/16 05:24:35;;;;;;;7.60;3.57;;;8.10;99.90;;;;;;5018316;28;20198;-75
2023/12/16 05:27:03;;;;;;;12.10;4.30;;;8.10;99.90;;;;;;5016093;28;20556;-75
2023/12/16 05:29:30;;;;;;;12.53;4.27;;;8.10;99.90;;;;;;5016607;28;20215;-75
2023/12/16 05:31:59;;;;;;;14.50;4.37;;;8.10;99.90;;;;;;5035182;28;20214;-75
2023/12/16 05:34:26;;;;;;;11.47;4.60;;;8.10;99.90;;;;;;5031687;28;20207;-75
2023/12/16 05:36:54;;;;;;;5.83;3.47;;;8.10;99.90;;;;;;5015620;28;20661;-75
2023/12/16 05:39:21;;;;;;;8.63;4.20;;;8.10;99.90;;;;;;5047871;28;20698;-75
2023/12/16 05:41:49;;;;;;;15.77;4.37;;;8.10;99.90;;;;;;5015121;28;20194;-75
2023/12/16 05:44:17;;;;;;;10.70;4.37;;;8.10;99.90;;;;;;5021299;28;20534;-75
2023/12/16 05:46:44;;;;;;;13.33;4.23;;;8.10;99.90;;;;;;5035226;28;20202;-75
2023/12/16 05:49:13;;;;;;;7.43;4.00;;;8.10;99.90;;;;;;5024626;28;20223;-75
2023/12/16 05:51:42;;;;;;;9.30;4.60;;;8.10;99.90;;;;;;5015033;28;20213;-75
2023/12/16 05:54:09;;;;;;;8.30;4.30;;;8.10;99.90;;;;;;5019574;28;20698;-75
2023/12/16 05:56:37;;;;;;;7.37;3.70;;;8.10;99.90;;;;;;5052480;28;20179;-75
2023/12/16 05:59:04;;;;;;;8.47;4.00;;;8.10;99.90;;;;;;5035322;28;20215;-75
2023/12/16 06:01:32;;;;;;;8.67;4.20;;;8.10;99.90;;;;;;5015413;28;20206;-75
2023/12/16 06:03:59;;;;;;;7.07;3.90;;;8.10;99.90;;;;;;5015732;28;20217;-75
2023/12/16 06:07:00;;;;;;;11.77;3.80;;;8.10;99.90;;;;;;5035620;28;20194;-75
2023/12/16 06:09:28;;;;;;;9.67;4.27;;;8.10;99.90;;;;;;5018915;28;20233;-75
2023/12/16 06:12:08;;;;;;;8.87;4.10;;;8.10;99.90;;;;;;5016813;28;20214;-75
2023/12/16 06:14:36;;;;;;;8.97;3.90;;;8.10;99.90;;;;;;5033948;28;20199;-75
2023/12/16 06:17:03;;;;;;;10.33;4.30;;;8.10;99.90;;;;;;5018748;28;20198;-75
2023/12/16 06:19:31;;;;;;;9.97;4.17;;;8.10;99.90;;;;;;5028531;28;20222;-75
2023/12/16 06:22:01;;;;;;;8.20;3.37;;;8.10;99.90;;;;;;5014691;28;20727;-75
2023/12/16 06:24:54;;;;;;;6.00;3.90;;;8.10;99.90;;;;;;5018184;28;20189;-75
2023/12/16 06:27:21;;;;;;;12.97;4.20;;;8.10;99.90;;;;;;5019720;28;20218;-75
2023/12/16 06:29:49;;;;;;;9.70;4.10;;;8.10;99.90;;;;;;5021831;28;20656;-75
2023/12/16 06:32:16;;;;;;;8.90;4.77;;;8.10;99.90;;;;;;5036513;28;20202;-75
2023/12/16 06:34:46;;;;;;;8.57;4.27;;;8.10;99.90;;;;;;5014570;28;20210;-75
2023/12/16 06:37:14;;;;;;;10.17;4.27;;;8.10;99.90;;;;;;5045688;28;20651;-75
2023/12/16 06:39:42;;;;;;;12.13;3.97;;;8.10;99.90;;;;;;5025684;28;20218;-75
2023/12/16 06:42:09;;;;;;;13.33;4.80;;;8.10;99.90;;;;;;5015052;28;20198;-75
2023/12/16 06:44:37;;;;;;;7.27;3.20;;;8.10;99.90;;;;;;5017370;28;20199;-75
2023/12/16 06:47:05;;;;;;;10.07;4.27;;;8.10;99.90;;;;;;5026221;28;20694;-75
2023/12/16 06:49:32;;;;;;;10.73;4.07;;;8.10;99.90;;;;;;5021465;28;20235;-75
2023/12/16 06:51:59;;;;;;;8.30;3.43;;;8.10;99.90;;;;;;5020299;28;20213;-75
2023/12/16 06:54:28;;;;;;;9.93;4.00;;;8.10;99.90;;;;;;5022130;28;20218;-75
2023/12/16 06:56:56;;;;;;;12.23;4.57;;;8.10;99.90;;;;;;5021058;28;20213;-75
2023/12/16 06:59:23;;;;;;;7.67;3.53;;;8.10;99.90;;;;;;5035742;28;20218;-75
2023/12/16 07:01:51;;;;;;;9.50;4.63;;;8.10;99.90;;;;;;5022684;28;20195;-75
2023/12/16 07:04:18;;;;;;;8.23;4.47;;;8.10;99.90;;;;;;5014899;28;20199;-75
2023/12/16 07:06:45;;;;;;;11.37;4.03;;;8.10;99.90;;;;;;5035970;28;20205;-75
2023/12/16 07:12:44;;;;;;;12.93;5.03;;;8.10;99.90;;;;;;5024751;28;20198;-75
2023/12/16 07:15:11;;;;;;;10.43;4.17;;;8.10;99.90;;;;;;5024992;28;20205;-75
2023/12/16 07:17:40;;;;;;;7.10;4.03;;;8.10;99.90;;;;;;5017262;28;20213;-74
2023/12/16 07:20:09;;;;;;;11.20;3.87;;;8.10;99.90;;;;;;5017563;28;20222;-76
2023/12/16 07:22:36;;;;;;;12.00;4.10;;;8.10;99.90;;;;;;5032223;28;20209;-75
2023/12/16 07:25:04;;;;;;;10.60;4.10;;;8.10;99.90;;;;;;5033063;28;20210;-75
2023/12/16 07:27:32;;;;;;;12.43;4.20;;;8.10;99.90;;;;;;5033173;28;20214;-76
2023/12/16 07:30:00;;;;;;;13.80;4.07;;;8.20;99.90;;;;;;5025792;28;20660;-76
2023/12/16 07:32:28;;;;;;;8.80;3.60;;;8.10;99.90;;;;;;5017677;28;20206;-76
2023/12/16 07:34:56;;;;;;;15.37;4.83;;;8.10;99.90;;;;;;5023467;28;20209;-76
2023/12/16 07:37:23;;;;;;;9.47;4.47;;;8.10;99.90;;;;;;5017104;28;20206;-76
2023/12/16 07:39:50;;;;;;;9.23;4.00;;;8.10;99.90;;;;;;5025399;28;20197;-76
2023/12/16 07:42:18;;;;;;;9.90;3.47;;;8.10;99.90;;;;;;5023886;28;20831;-76
2023/12/16 07:44:45;;;;;;;13.13;4.07;;;8.10;99.90;;;;;;5024598;28;20210;-75
2023/12/16 07:47:14;;;;;;;10.93;3.73;;;8.20;99.90;;;;;;5028784;28;20199;-76
2023/12/16 07:49:41;;;;;;;12.73;3.93;;;8.10;99.90;;;;;;5018706;28;20226;-76
2023/12/16 07:52:09;;;;;;;11.63;4.43;;;8.10;99.90;;;;;;5026986;28;20206;-75
2023/12/16 07:54:36;;;;;;;8.30;4.33;;;8.10;99.90;;;;;;5025663;28;20238;-75
2023/12/16 07:57:04;;;;;;;14.37;4.20;;;8.10;99.90;;;;;;5037306;28;20554;-75
2023/12/16 07:59:31;;;;;;;9.83;3.73;;;8.20;99.90;;;;;;5029362;28;20218;-75
2023/12/16 08:02:00;;;;;;;11.80;4.60;;;8.10;99.90;;;;;;5039784;28;20195;-76
2023/12/16 08:04:29;;;;;;;10.67;3.90;;;8.10;99.90;;;;;;5037085;28;20195;-75
2023/12/16 08:06:56;;;;;;;8.63;4.00;;;8.10;99.90;;;;;;5045922;28;20194;-76
2023/12/16 08:09:24;;;;;;;12.90;4.33;;;8.00;99.90;;;;;;5021335;28;20222;-76
2023/12/16 08:11:57;;;;;;;12.57;4.43;;;8.10;99.90;;;;;;5025041;28;20198;-75
2023/12/16 08:14:25;;;;;;;11.70;3.77;;;8.10;99.90;;;;;;5024770;28;20587;-75
2023/12/16 08:16:52;;;;;;;13.13;4.37;;;8.00;99.90;;;;;;5036547;28;20203;-75
2023/12/16 08:19:20;;;;;;;11.63;4.57;;;8.00;99.90;;;;;;5021041;28;20226;-75
2023/12/16 08:21:48;;;;;;;10.50;5.43;;;8.00;99.90;;;;;;5027123;28;20205;-75
2023/12/16 08:24:16;;;;;;;9.97;4.60;;;8.00;99.90;;;;;;5037370;28;20210;-75
2023/12/16 08:26:43;;;;;;;7.27;3.83;;;8.00;99.90;;;;;;5044434;28;20201;-75
2023/12/16 08:29:10;;;;;;;9.50;4.37;;;8.00;99.90;;;;;;5041413;28;20226;-75
2023/12/16 08:31:38;;;;;;;10.70;4.43;;;8.00;99.90;;;;;;5022206;28;20210;-75
2023/12/16 08:34:05;;;;;;;7.43;4.10;;;8.00;99.90;;;;;;5020547;28;20211;-75
2023/12/16 08:36:32;;;;;;;9.53;5.30;;;8.00;99.90;;;;;;5042584;28;20217;-75
2023/12/16 08:39:01;;;;;;;20.83;5.50;;;8.10;99.90;;;;;;5024651;28;20679;-76
2023/12/16 08:41:29;;;;;;;10.37;4.70;;;8.10;99.90;;;;;;5045905;28;20194;-76
2023/12/16 08:43:56;;;;;;;11.67;4.40;;;8.10;99.90;;;;;;5017328;28;20207;-75
2023/12/16 08:46:25;;;;;;;11.23;4.70;;;8.10;99.90;;;;;;5022708;28;20206;-75
2023/12/16 08:48:53;;;;;;;12.00;4.57;;;8.10;99.90;;;;;;5025421;28;20219;-75
2023/12/16 08:51:22;;;;;;;12.37;4.97;;;8.10;99.90;;;;;;5021068;28;20214;-75
2023/12/16 08:53:49;;;;;;;11.77;4.80;;;8.10;99.90;;;;;;5029769;28;20219;-75
2023/12/16 08:56:18;;;;;;;11.43;5.07;;;8.10;99.90;;;;;;5018893;28;20715;-75
2023/12/16 08:58:46;;;;;;;11.93;5.10;;;8.20;99.90;;;;;;5028096;28;20217;-75
2023/12/16 09:01:13;;;;;;;15.50;5.00;;;8.20;99.90;;;;;;5040828;28;20218;-75
2023/12/16 09:03:43;;;;;;;11.60;5.83;;;8.30;99.90;;;;;;5020236;28;20195;-75
2023/12/16 09:06:11;;;;;;;10.70;4.37;;;8.40;99.90;;;;;;5027452;28;20202;-75
2023/12/16 09:08:38;;;;;;;12.13;4.87;;;8.40;99.90;;;;;;5027022;28;20233;-75
2023/12/16 09:11:06;;;;;;;9.60;4.97;;;8.40;99.90;;;;;;5014792;28;20568;-74
2023/12/16 09:13:35;;;;;;;12.23;4.53;;;8.40;99.90;;;;;;5039568;28;20210;-75
2023/12/16 09:16:03;;;;;;;7.80;3.97;;;8.50;99.90;;;;;;5029033;28;20199;-75
2023/12/16 09:18:30;;;;;;;10.87;4.20;;;8.50;99.90;;;;;;5018570;28;20597;-75
2023/12/16 09:20:57;;;;;;;13.40;4.67;;;8.50;99.90;;;;;;5042094;28;20191;-75
2023/12/16 09:23:25;;;;;;;9.20;3.97;;;8.50;99.90;;;;;;5044074;28;20203;-75
2023/12/16 09:25:53;;;;;;;13.10;4.60;;;8.50;99.90;;;;;;5031662;28;20195;-75
2023/12/16 09:28:21;;;;;;;10.40;4.40;;;8.50;99.90;;;;;;5015730;28;20215;-75
2023/12/16 09:30:49;;;;;;;11.43;4.17;;;8.50;99.90;;;;;;5037177;28;20225;-75
2023/12/16 09:33:17;;;;;;;10.20;4.00;;;8.50;99.90;;;;;;5027595;28;20215;-75
2023/12/16 09:35:44;;;;;;;9.73;4.20;;;8.60;99.90;;;;;;5015215;28;20202;-75
2023/12/16 09:38:12;;;;;;;11.73;3.60;;;8.60;99.90;;;;;;5018719;28;20226;-75
2023/12/16 09:40:41;;;;;;;6.93;3.70;;;8.70;99.90;;;;;;5014976;28;20711;-75
2023/12/16 09:43:15;;;;;;;12.00;4.47;;;8.60;99.90;;;;;;5038490;28;20210;-75
2023/12/16 09:45:46;;;;;;;9.33;3.40;;;8.70;99.90;;;;;;5050179;28;20186;-75
2023/12/16 09:48:17;;;;;;;9.00;3.77;;;8.70;99.90;;;;;;5052080;28;20695;-75
2023/12/16 09:50:45;;;;;;;10.87;4.10;;;8.80;99.90;;;;;;5026767;28;20195;-75
2023/12/16 09:53:12;;;;;;;13.63;4.13;;;8.90;99.90;;;;;;5031670;28;20209;-75
2023/12/16 09:55:41;;;;;;;16.03;4.10;;;8.90;99.90;;;;;;5026564;28;20237;-75
2023/12/16 09:58:13;;;;;;;12.67;3.73;;;8.90;99.90;;;;;;5014484;28;20221;-75
2023/12/16 10:00:46;;;;;;;13.43;4.17;;;9.00;99.90;;;;;;5023221;28;20190;-75
2023/12/16 10:03:16;;;;;;;16.83;3.93;;;9.10;99.90;;;;;;5037154;28;20197;-75
2023/12/16 10:05:46;;;;;;;10.33;3.70;;;9.10;99.90;;;;;;5025034;28;20195;-75
2023/12/16 10:08:13;;;;;;;12.73;4.17;;;9.10;99.90;;;;;;5016065;28;20218;-75
2023/12/16 10:10:42;;;;;;;7.90;3.23;;;9.10;99.90;;;;;;5040247;28;20191;-75
2023/12/16 10:13:09;;;;;;;11.47;3.83;;;9.10;99.90;;;;;;5021845;28;20214;-75
2023/12/16 10:15:37;;;;;;;9.33;3.43;;;9.20;99.90;;;;;;5032129;28;20577;-75
2023/12/16 10:18:05;;;;;;;10.33;4.07;;;9.20;99.90;;;;;;5020356;28;20218;-75
2023/12/16 10:20:34;;;;;;;9.50;3.53;;;9.20;99.90;;;;;;5044874;28;20198;-75
2023/12/16 10:23:02;;;;;;;11.23;3.97;;;9.10;99.90;;;;;;5025743;28;20199;-75
2023/12/16 10:25:31;;;;;;;8.17;2.97;;;9.10;99.90;;;;;;5014176;28;20205;-75
2023/12/16 10:28:01;;;;;;;11.90;3.37;;;9.10;99.90;;;;;;5040531;28;20214;-75
2023/12/16 10:30:28;;;;;;;10.60;3.63;;;9.10;99.90;;;;;;5027082;28;20203;-75
2023/12/16 10:32:56;;;;;;;11.83;3.90;;;9.10;99.90;;;;;;5020237;28;20194;-75
2023/12/16 10:35:24;;;;;;;10.43;3.43;;;9.10;99.90;;;;;;5021116;28;20219;-75
2023/12/16 10:37:53;;;;;;;12.30;3.10;;;9.20;99.90;;;;;;5022169;28;20227;-75
2023/12/16 10:40:22;;;;;;;10.27;3.27;;;9.20;99.90;;;;;;5021013;28;20202;-75
2023/12/16 10:42:49;;;;;;;9.43;3.27;;;9.20;99.90;;;;;;5035327;28;20195;-75
2023/12/16 10:45:17;;;;;;;13.43;3.60;;;9.10;99.90;;;;;;5020107;28;20191;-75
2023/12/16 10:47:48;;;;;;;13.67;3.77;;;9.20;99.90;;;;;;5034787;28;20238;-75
2023/12/16 10:50:16;;;;;;;10.77;4.50;;;9.20;99.90;;;;;;5017146;28;20213;-75
2023/12/16 10:52:48;;;;;;;6.93;2.87;;;9.20;99.90;;;;;;5014665;28;20202;-74
2023/12/16 10:55:23;;;;;;;7.93;3.23;;;9.20;99.90;;;;;;5043141;28;20210;-75
2023/12/16 10:58:16;;;;;;;11.27;3.10;;;9.20;99.90;;;;;;5045851;28;20210;-75
2023/12/16 11:00:48;;;;;;;16.83;4.87;;;9.20;99.90;;;;;;5016268;28;20203;-75
2023/12/16 11:03:24;;;;;;;10.33;3.80;;;9.20;99.90;;;;;;5016967;28;20203;-75
2023/12/16 11:05:56;;;;;;;13.50;4.07;;;9.30;99.90;;;;;;5017312;28;20195;-75
2023/12/16 11:08:25;;;;;;;8.47;3.90;;;9.30;99.90;;;;;;5034570;28;20210;-75
2023/12/16 11:10:55;;;;;;;16.93;3.63;;;9.30;99.90;;;;;;5022068;28;20206;-75
2023/12/16 11:13:23;;;;;;;10.13;3.40;;;9.30;99.90;;;;;;5016099;28;20278;-75
2023/12/16 11:15:55;;;;;;;9.47;3.73;;;9.20;99.90;;;;;;5030631;28;20215;-75
2023/12/16 11:18:26;;;;;;;10.47;3.57;;;9.20;99.90;;;;;;5017658;28;20229;-75
2023/12/16 11:21:01;;;;;;;10.17;3.30;;;9.20;99.90;;;;;;5019856;28;20203;-75
2023/12/16 11:23:29;;;;;;;12.13;3.57;;;9.20;99.90;;;;;;5017971;28;20221;-76
2023/12/16 11:26:02;;;;;;;9.33;3.50;;;9.20;99.90;;;;;;5016261;28;20188;-76
2023/12/16 11:28:33;;;;;;;9.33;4.33;;;9.20;99.90;;;;;;5019611;28;20219;-75
2023/12/16 11:31:01;;;;;;;9.17;3.77;;;9.20;99.90;;;;;;5022580;28;20206;-76
2023/12/16 11:33:43;;;;;;;11.93;4.10;;;9.20;99.90;;;;;;5015126;28;20211;-75
2023/12/16 11:36:11;;;;;;;10.47;3.67;;;9.30;99.90;;;;;;5017230;28;20230;-75
2023/12/16 11:38:41;;;;;;;15.40;3.73;;;9.30;99.90;;;;;;5024027;28;20227;-74
2023/12/16 11:41:11;;;;;;;8.37;4.00;;;9.20;99.90;;;;;;5035513;28;20179;-75
2023/12/16 11:43:50;;;;;;;8.07;3.63;;;9.20;99.90;;;;;;5021314;28;20196;-75
2023/12/16 11:46:39;;;;;;;11.67;4.07;;;9.20;99.90;;;;;;5018981;28;20252;-75
2023/12/16 11:49:10;;;;;;;9.43;3.13;;;9.20;99.90;;;;;;5021943;28;20231;-75
2023/12/16 11:51:38;;;;;;;13.70;3.80;;;9.20;99.90;;;;;;5019134;28;20201;-75
2023/12/16 11:54:08;;;;;;;12.37;3.97;;;9.20;99.90;;;;;;5036093;28;20209;-75
2023/12/16 11:56:37;;;;;;;12.97;4.23;;;9.20;99.90;;;;;;5022134;28;20230;-75
2023/12/16 11:59:05;;;;;;;12.80;4.10;;;9.20;99.90;;;;;;5020160;28;20214;-75
2023/12/16 12:01:41;;;;;;;8.83;4.10;;;9.20;99.90;;;;;;5039053;28;20198;-75
2023/12/16 12:04:09;;;;;;;12.77;3.33;;;9.20;99.90;;;;;;5020589;28;20214;-75
2023/12/16 12:06:37;;;;;;;13.60;3.67;;;9.30;99.90;;;;;;5023130;28;20206;-75
2023/12/16 12:09:05;;;;;;;8.73;3.67;;;9.20;99.90;;;;;;5037432;28;20225;-75
2023/12/16 12:11:32;;;;;;;12.50;4.10;;;9.20;99.90;;;;;;5020717;28;20203;-75
2023/12/16 12:14:02;;;;;;;6.30;3.07;;;9.20;99.90;;;;;;5022841;28;20206;-75
2023/12/16 12:16:29;;;;;;;7.13;2.80;;;9.20;99.90;;;;;;5022446;28;20254;-75
2023/12/16 12:18:57;;;;;;;8.97;3.70;;;9.10;99.90;;;;;;5019365;28;20229;-75
2023/12/16 12:21:24;;;;;;;14.33;3.90;;;9.20;99.90;;;;;;5036428;28;20194;-75
2023/12/16 12:23:52;;;;;;;10.77;3.30;;;9.20;99.90;;;;;;5023567;28;20199;-75
2023/12/16 12:26:20;;;;;;;10.37;3.60;;;9.20;99.90;;;;;;5045022;28;20195;-75
2023/12/16 12:28:59;;;;;;;12.20;3.47;;;9.20;99.90;;;;;;5023726;28;20219;-75
2023/12/16 12:31:28;;;;;;;14.60;3.90;;;9.20;99.90;;;;;;5021812;28;20206;-75
2023/12/16 12:34:04;;;;;;;11.60;3.60;;;9.20;99.90;;;;;;5045417;28;20195;-75
2023/12/16 12:36:46;;;;;;;11.03;3.80;;;9.20;99.90;;;;;;5018972;28;20211;-76
2023/12/16 12:39:18;;;;;;;8.90;3.43;;;9.20;99.90;;;;;;5036438;28;20214;-76
2023/12/16 12:41:45;;;;;;;9.27;3.57;;;9.20;99.90;;;;;;5021111;28;20565;-76
2023/12/16 12:44:13;;;;;;;14.63;3.30;;;9.20;99.90;;;;;;5019589;28;20202;-76
2023/12/16 12:46:48;;;;;;;8.90;3.73;;;9.10;99.90;;;;;;5019689;28;20195;-76
2023/12/16 12:49:16;;;;;;;13.97;4.13;;;9.10;99.90;;;;;;5018875;28;20832;-76
2023/12/16 12:51:51;;;;;;;10.17;3.20;;;9.20;99.90;;;;;;5023917;28;20199;-76
2023/12/16 12:54:20;;;;;;;13.40;3.80;;;9.10;99.90;;;;;;5023365;28;20210;-76
2023/12/16 12:56:49;;;;;;;11.63;3.90;;;9.20;99.90;;;;;;5039818;28;20688;-76
2023/12/16 12:59:16;;;;;;;11.50;3.80;;;9.20;99.90;;;;;;5027593;28;20226;-76
2023/12/16 13:01:45;;;;;;;14.63;4.03;;;9.20;99.90;;;;;;5047102;28;20207;-76